createdAt,value
2023-03-03T00:00:37.664Z,29.20
2023-03-03T00:01:42.828Z,31.00
2023-03-03T00:03:05.306Z,27.23
2023-03-03T00:04:10.513Z,32.95
2023-03-03T00:05:32.967Z,31.95
2023-03-03T00:06:55.504Z,33.78
2023-03-03T00:08:17.985Z,33.70
2023-03-03T00:09:40.445Z,31.73
2023-03-03T00:11:04.938Z,32.83
2023-03-03T00:12:28.845Z,31.10
2023-03-03T00:13:55.165Z,32.78
2023-03-03T00:15:19.585Z,30.42
2023-03-03T00:16:42.781Z,34.53
2023-03-03T00:18:17.751Z,33.50
2023-03-03T00:19:41.100Z,33.40
2023-03-03T00:21:10.261Z,34.85
2023-03-03T00:22:37.314Z,34.90
2023-03-03T00:24:22.197Z,33.97
2023-03-03T00:25:45.816Z,31.67
2023-03-03T00:27:19.530Z,32.72
2023-03-03T00:28:45.564Z,33.45
2023-03-03T00:30:20.875Z,35.83
2023-03-03T00:31:43.370Z,33.30
2023-03-03T00:33:20.668Z,31.73
2023-03-03T00:34:44.177Z,32.35
2023-03-03T00:36:32.946Z,33.05
2023-03-03T00:37:56.647Z,33.22
2023-03-03T00:39:27.116Z,33.50
2023-03-03T00:40:49.892Z,32.95
2023-03-03T00:42:13.574Z,32.40
2023-03-03T00:43:37.156Z,31.92
2023-03-03T00:45:00.956Z,34.90
2023-03-03T00:46:25.525Z,30.80
2023-03-03T00:47:47.776Z,33.60
2023-03-03T00:49:28.557Z,32.85
2023-03-03T00:50:53.430Z,32.35
2023-03-03T00:52:17.874Z,32.35
2023-03-03T00:53:40.406Z,34.70
2023-03-03T00:55:02.502Z,33.72
2023-03-03T00:56:25.886Z,32.28
2023-03-03T00:57:47.975Z,34.28
2023-03-03T00:59:10.577Z,34.38
2023-03-03T01:00:34.206Z,35.28
2023-03-03T01:01:56.926Z,32.30
2023-03-03T01:03:21.967Z,31.52
2023-03-03T01:04:50.146Z,34.75
2023-03-03T01:06:14.103Z,33.60
2023-03-03T01:07:35.625Z,38.95
2023-03-03T01:08:58.227Z,36.55
2023-03-03T01:10:19.835Z,35.15
2023-03-03T01:11:42.527Z,36.35
2023-03-03T01:13:05.331Z,37.78
2023-03-03T01:14:28.133Z,34.97
2023-03-03T01:15:51.829Z,32.55
2023-03-03T01:17:13.414Z,38.28
2023-03-03T01:18:37.237Z,35.78
2023-03-03T01:20:00.482Z,34.58
2023-03-03T01:21:22.984Z,35.42
2023-03-03T01:22:44.569Z,34.97
2023-03-03T01:24:07.131Z,33.40
2023-03-03T01:25:29.998Z,33.97
2023-03-03T01:26:52.560Z,36.83
2023-03-03T01:28:14.218Z,34.72
2023-03-03T01:29:36.961Z,33.95
2023-03-03T01:31:02.729Z,34.08
2023-03-03T01:32:24.731Z,34.17
2023-03-03T01:33:47.513Z,33.95
2023-03-03T01:35:10.860Z,34.35
2023-03-03T01:36:33.845Z,35.42
2023-03-03T01:37:55.713Z,35.78
2023-03-03T01:39:18.283Z,35.75
2023-03-03T01:40:41.456Z,33.55
2023-03-03T01:42:03.867Z,34.38
2023-03-03T01:43:28.638Z,34.88
2023-03-03T01:45:12.597Z,34.03
2023-03-03T01:46:46.915Z,37.17
2023-03-03T01:48:14.302Z,35.88
2023-03-03T01:49:43.226Z,38.20
2023-03-03T01:51:15.692Z,34.58
2023-03-03T01:52:41.917Z,33.33
2023-03-03T01:54:06.778Z,39.22
2023-03-03T01:55:33.016Z,38.25
2023-03-03T01:57:01.155Z,38.38
2023-03-03T01:58:28.853Z,37.75
2023-03-03T01:59:52.344Z,39.05
2023-03-03T02:01:20.177Z,40.50
2023-03-03T02:02:44.894Z,39.03
2023-03-03T02:04:06.982Z,36.53
2023-03-03T02:05:30.124Z,35.83
2023-03-03T02:07:01.752Z,35.55
2023-03-03T02:08:29.750Z,39.22
2023-03-03T02:09:58.845Z,40.75
2023-03-03T02:11:22.835Z,37.47
2023-03-03T02:12:49.904Z,42.08
2023-03-03T02:14:12.879Z,40.78
2023-03-03T02:15:36.841Z,36.00
2023-03-03T02:16:59.745Z,38.08
2023-03-03T02:18:22.322Z,38.67
2023-03-03T02:19:50.902Z,41.38
2023-03-03T02:21:16.287Z,39.60
2023-03-03T02:22:45.141Z,35.85
2023-03-03T02:24:16.644Z,38.45
2023-03-03T02:25:49.572Z,40.08
2023-03-03T02:27:14.480Z,40.10
2023-03-03T02:28:37.883Z,38.10
2023-03-03T02:30:11.735Z,38.50
2023-03-03T02:31:34.828Z,40.88
2023-03-03T02:32:56.350Z,40.92
2023-03-03T02:34:18.960Z,44.10
2023-03-03T02:35:41.601Z,38.10
2023-03-03T02:37:04.888Z,36.88
2023-03-03T02:38:29.820Z,40.10
2023-03-03T02:39:52.354Z,35.97
2023-03-03T02:41:21.079Z,35.45
2023-03-03T02:42:47.759Z,37.40
2023-03-03T02:44:12.204Z,38.92
2023-03-03T02:45:33.783Z,32.58
2023-03-03T02:46:57.371Z,34.85
2023-03-03T02:48:19.014Z,31.75
2023-03-03T02:49:42.847Z,36.25
2023-03-03T02:51:04.866Z,34.50
2023-03-03T02:52:27.365Z,37.42
2023-03-03T02:53:49.603Z,33.28
2023-03-03T02:55:12.127Z,34.95
2023-03-03T02:56:35.129Z,36.10
2023-03-03T02:57:59.035Z,34.20
2023-03-03T02:59:21.550Z,35.95
2023-03-03T03:00:43.167Z,36.50
2023-03-03T03:02:07.242Z,33.92
2023-03-03T03:03:28.834Z,33.35
2023-03-03T03:04:51.364Z,36.30
2023-03-03T03:06:13.139Z,34.15
2023-03-03T03:07:35.698Z,31.33
2023-03-03T03:08:58.210Z,29.95
2023-03-03T03:10:19.756Z,32.85
2023-03-03T03:11:42.677Z,28.95
2023-03-03T03:12:44.260Z,31.20
2023-03-03T03:13:48.089Z,30.35
2023-03-03T03:14:49.644Z,29.70
2023-03-03T03:15:52.584Z,35.30
2023-03-03T03:16:54.224Z,34.45
2023-03-03T03:17:56.735Z,32.05
2023-03-03T03:18:59.712Z,34.53
2023-03-03T03:20:02.210Z,31.42
2023-03-03T03:21:08.460Z,31.42
2023-03-03T03:22:10.983Z,32.67
2023-03-03T03:23:23.522Z,34.22
2023-03-03T03:24:25.236Z,35.25
2023-03-03T03:25:27.724Z,30.98
2023-03-03T03:26:29.747Z,36.30
2023-03-03T03:27:32.328Z,34.20
2023-03-03T03:28:34.325Z,25.05
2023-03-03T03:29:38.216Z,31.60
2023-03-03T03:30:40.250Z,29.92
2023-03-03T03:31:44.095Z,34.42
2023-03-03T03:32:45.801Z,32.55
2023-03-03T03:33:48.936Z,34.67
2023-03-03T03:34:50.731Z,35.15
2023-03-03T03:35:53.373Z,31.33
2023-03-03T03:36:54.940Z,36.03
2023-03-03T03:37:57.462Z,33.58
2023-03-03T03:38:58.987Z,35.70
2023-03-03T03:40:04.884Z,35.20
2023-03-03T03:41:07.656Z,35.67
2023-03-03T03:42:11.373Z,33.67
2023-03-03T03:43:13.156Z,32.25
2023-03-03T03:44:15.972Z,33.53
2023-03-03T03:45:18.984Z,32.35
2023-03-03T03:46:21.588Z,34.05
2023-03-03T03:47:23.706Z,32.95
2023-03-03T03:48:26.481Z,33.38
2023-03-03T03:49:28.149Z,30.10
2023-03-03T03:50:30.660Z,30.63
2023-03-03T03:51:33.881Z,31.90
2023-03-03T03:52:36.432Z,31.50
2023-03-03T03:53:38.658Z,29.90
2023-03-03T03:54:41.338Z,29.58
2023-03-03T03:55:42.909Z,30.88
2023-03-03T03:56:45.444Z,28.33
2023-03-03T03:57:47.685Z,27.92
2023-03-03T03:58:54.579Z,28.00
2023-03-03T03:59:56.233Z,31.08
2023-03-03T04:01:04.855Z,28.80
2023-03-03T04:02:06.551Z,31.23
2023-03-03T04:03:19.285Z,28.38
2023-03-03T04:04:21.008Z,26.55
2023-03-03T04:05:23.684Z,29.67
2023-03-03T04:06:25.580Z,28.73
2023-03-03T04:07:28.120Z,29.48
2023-03-03T04:08:29.691Z,30.30
2023-03-03T04:09:32.217Z,28.02
2023-03-03T04:10:33.739Z,30.48
2023-03-03T04:11:36.316Z,28.65
2023-03-03T04:12:38.614Z,29.08
2023-03-03T04:13:41.440Z,30.02
2023-03-03T04:14:44.641Z,30.65
2023-03-03T04:15:47.513Z,26.10
2023-03-03T04:16:50.692Z,23.42
2023-03-03T04:17:53.164Z,26.35
2023-03-03T04:18:54.760Z,26.00
2023-03-03T04:19:57.996Z,25.65
2023-03-03T04:20:59.744Z,24.75
2023-03-03T04:22:12.551Z,25.92
2023-03-03T04:23:23.263Z,27.85
2023-03-03T04:24:26.148Z,25.02
2023-03-03T04:25:35.250Z,29.85
2023-03-03T04:26:37.772Z,27.17
2023-03-03T04:27:39.291Z,27.80
2023-03-03T04:28:41.929Z,26.30
2023-03-03T04:29:43.526Z,28.38
2023-03-03T04:30:56.043Z,27.98
2023-03-03T04:31:58.994Z,26.38
2023-03-03T04:33:01.481Z,25.13
2023-03-03T04:34:02.993Z,25.40
2023-03-03T04:35:08.528Z,19.00
2023-03-03T04:36:11.322Z,25.55
2023-03-03T04:37:12.951Z,25.48
2023-03-03T04:38:15.440Z,24.63
2023-03-03T04:39:17.027Z,25.85
2023-03-03T04:40:19.671Z,27.38
2023-03-03T04:41:21.353Z,24.35
2023-03-03T04:42:23.852Z,23.08
2023-03-03T04:43:25.513Z,24.77
2023-03-03T04:44:28.034Z,25.15
2023-03-03T04:45:29.545Z,23.15
2023-03-03T04:46:32.461Z,24.17
2023-03-03T04:47:35.711Z,22.02
2023-03-03T04:48:38.338Z,23.67
2023-03-03T04:49:39.881Z,25.20
2023-03-03T04:50:42.841Z,22.23
2023-03-03T04:51:44.358Z,23.17
2023-03-03T04:52:46.866Z,19.48
2023-03-03T04:53:51.131Z,25.75
2023-03-03T04:54:54.878Z,21.15
2023-03-03T04:55:57.914Z,25.88
2023-03-03T04:56:59.559Z,23.85
2023-03-03T04:58:04.636Z,24.83
2023-03-03T04:59:06.386Z,26.27
2023-03-03T05:00:10.076Z,24.75
2023-03-03T05:01:16.590Z,24.70
2023-03-03T05:02:19.511Z,23.88
2023-03-03T05:03:23.233Z,25.33
2023-03-03T05:04:25.863Z,25.25
2023-03-03T05:05:38.334Z,23.73
2023-03-03T05:06:41.942Z,25.52
2023-03-03T05:07:44.430Z,25.45
2023-03-03T05:08:46.723Z,23.20
2023-03-03T05:09:49.222Z,22.65
2023-03-03T05:10:52.254Z,24.50
2023-03-03T05:11:55.090Z,21.88
2023-03-03T05:12:56.607Z,21.80
2023-03-03T05:13:59.389Z,22.05
2023-03-03T05:15:01.420Z,11.35
2023-03-03T05:16:14.638Z,22.58
2023-03-03T05:17:16.398Z,23.55
2023-03-03T05:18:19.825Z,24.13
2023-03-03T05:19:23.287Z,24.40
2023-03-03T05:20:26.335Z,21.27
2023-03-03T05:21:27.866Z,17.33
2023-03-03T05:22:30.334Z,23.23
2023-03-03T05:23:31.871Z,22.85
2023-03-03T05:24:34.450Z,21.10
2023-03-03T05:25:36.014Z,20.55
2023-03-03T05:26:48.469Z,24.85
2023-03-03T05:27:50.144Z,24.27
2023-03-03T05:28:52.611Z,21.33
2023-03-03T05:29:54.321Z,23.75
2023-03-03T05:30:56.797Z,24.90
2023-03-03T05:31:58.446Z,23.73
2023-03-03T05:33:01.477Z,23.85
2023-03-03T05:34:04.023Z,24.10
2023-03-03T05:35:07.739Z,24.70
2023-03-03T05:36:16.996Z,22.33
2023-03-03T05:37:28.624Z,22.00
2023-03-03T05:38:41.143Z,22.92
2023-03-03T05:39:44.568Z,20.45
2023-03-03T05:40:48.086Z,23.25
2023-03-03T05:41:49.650Z,21.25
2023-03-03T05:42:52.678Z,21.77
2023-03-03T05:43:54.275Z,20.30
2023-03-03T05:44:56.805Z,22.63
2023-03-03T05:45:58.864Z,22.05
2023-03-03T05:47:01.447Z,22.10
2023-03-03T05:48:04.732Z,21.00
2023-03-03T05:49:07.234Z,20.73
2023-03-03T05:50:12.141Z,20.35
2023-03-03T05:51:14.784Z,22.95
2023-03-03T05:52:16.680Z,18.50
2023-03-03T05:53:21.272Z,22.70
2023-03-03T05:54:23.074Z,22.10
2023-03-03T05:55:26.123Z,19.90
2023-03-03T05:56:27.798Z,19.70
2023-03-03T05:57:32.606Z,20.45
2023-03-03T05:58:34.305Z,22.05
2023-03-03T05:59:36.793Z,20.83
2023-03-03T06:00:38.403Z,19.95
2023-03-03T06:01:42.470Z,20.25
2023-03-03T06:02:44.293Z,20.85
2023-03-03T06:03:46.801Z,20.80
2023-03-03T06:04:48.344Z,20.30
2023-03-03T06:05:56.618Z,21.70
2023-03-03T06:06:58.238Z,19.70
2023-03-03T06:08:00.880Z,21.00
2023-03-03T06:09:02.491Z,22.63
2023-03-03T06:10:14.989Z,20.25
2023-03-03T06:11:18.506Z,20.40
2023-03-03T06:12:22.187Z,22.65
2023-03-03T06:13:24.185Z,19.25
2023-03-03T06:14:29.515Z,21.02
2023-03-03T06:15:32.264Z,19.33
2023-03-03T06:16:33.881Z,22.25
2023-03-03T06:17:36.631Z,19.70
2023-03-03T06:18:38.338Z,22.00
2023-03-03T06:19:41.391Z,19.55
2023-03-03T06:20:42.927Z,22.25
2023-03-03T06:21:46.817Z,17.38
2023-03-03T06:22:48.412Z,20.05
2023-03-03T06:23:50.907Z,21.35
2023-03-03T06:24:52.605Z,22.60
2023-03-03T06:25:55.127Z,21.23
2023-03-03T06:26:57.724Z,19.85
2023-03-03T06:28:00.211Z,20.90
2023-03-03T06:29:01.959Z,19.30
2023-03-03T06:30:05.064Z,20.88
2023-03-03T06:31:16.654Z,19.55
2023-03-03T06:32:19.292Z,19.90
2023-03-03T06:33:21.016Z,20.10
2023-03-03T06:34:33.541Z,18.23
2023-03-03T06:35:41.525Z,20.80
2023-03-03T06:36:44.613Z,18.83
2023-03-03T06:37:50.598Z,17.73
2023-03-03T06:38:53.328Z,18.15
2023-03-03T06:40:06.293Z,17.60
2023-03-03T06:41:08.790Z,12.80
2023-03-03T06:42:10.673Z,15.38
2023-03-03T06:43:13.209Z,15.85
2023-03-03T06:44:28.861Z,18.02
2023-03-03T06:45:38.163Z,17.23
2023-03-03T06:46:40.666Z,18.75
2023-03-03T06:47:42.199Z,18.38
2023-03-03T06:48:45.075Z,19.10
2023-03-03T06:49:46.691Z,20.60
2023-03-03T06:50:49.306Z,17.85
2023-03-03T06:51:50.959Z,18.92
2023-03-03T06:53:04.008Z,18.65
2023-03-03T06:54:11.772Z,18.35
2023-03-03T06:55:24.645Z,18.75
2023-03-03T06:56:27.280Z,14.38
2023-03-03T06:57:31.769Z,16.85
2023-03-03T06:58:36.002Z,16.40
2023-03-03T06:59:38.720Z,17.25
2023-03-03T07:00:42.170Z,18.63
2023-03-03T07:01:48.583Z,17.60
2023-03-03T07:02:53.890Z,18.00
2023-03-03T07:03:56.421Z,17.67
2023-03-03T07:04:59.415Z,16.17
2023-03-03T07:06:03.540Z,15.40
2023-03-03T07:07:14.951Z,18.75
2023-03-03T07:08:20.947Z,17.10
2023-03-03T07:09:25.528Z,19.08
2023-03-03T07:10:30.075Z,17.98
2023-03-03T07:11:33.180Z,16.92
2023-03-03T07:12:36.589Z,19.25
2023-03-03T07:13:47.099Z,17.15
2023-03-03T07:14:55.617Z,16.83
2023-03-03T07:16:06.632Z,14.75
2023-03-03T07:17:14.993Z,18.83
2023-03-03T07:18:33.473Z,16.13
2023-03-03T07:19:36.216Z,17.08
2023-03-03T07:20:41.016Z,18.45
2023-03-03T07:21:42.856Z,16.70
2023-03-03T07:22:45.457Z,16.98
2023-03-03T07:24:02.173Z,16.10
2023-03-03T07:25:19.541Z,15.25
2023-03-03T07:26:28.736Z,18.42
2023-03-03T07:27:32.766Z,18.73
2023-03-03T07:28:34.522Z,19.13
2023-03-03T07:29:41.131Z,18.85
2023-03-03T07:30:43.826Z,19.80
2023-03-03T07:31:57.759Z,18.58
2023-03-03T07:33:00.527Z,20.55
2023-03-03T07:34:05.451Z,19.40
2023-03-03T07:35:28.164Z,19.75
2023-03-03T07:36:33.588Z,18.40
2023-03-03T07:37:38.996Z,22.20
2023-03-03T07:38:47.843Z,19.05
2023-03-03T07:39:50.762Z,18.90
2023-03-03T07:40:55.082Z,18.58
2023-03-03T07:42:08.591Z,19.80
2023-03-03T07:43:31.554Z,19.63
2023-03-03T07:44:37.543Z,21.15
2023-03-03T07:45:39.816Z,19.95
2023-03-03T07:46:52.636Z,18.23
2023-03-03T07:48:09.174Z,21.80
2023-03-03T07:49:22.844Z,18.45
2023-03-03T07:50:24.622Z,20.02
2023-03-03T07:51:29.561Z,21.67
2023-03-03T07:52:39.108Z,20.55
2023-03-03T07:53:41.637Z,21.88
2023-03-03T07:54:47.308Z,20.92
2023-03-03T07:55:50.176Z,21.15
2023-03-03T07:56:53.268Z,21.13
2023-03-03T07:57:59.158Z,19.27
2023-03-03T07:59:08.472Z,19.13
2023-03-03T08:00:44.626Z,19.48
2023-03-03T08:01:49.634Z,21.92
2023-03-03T08:02:59.221Z,20.10
2023-03-03T08:04:00.899Z,19.73
2023-03-03T08:05:26.404Z,19.27
2023-03-03T08:06:40.223Z,21.63
2023-03-03T08:07:42.703Z,20.95
2023-03-03T08:08:47.253Z,18.42
2023-03-03T08:09:52.065Z,18.77
2023-03-03T08:10:56.452Z,19.83
2023-03-03T08:12:02.968Z,22.02
2023-03-03T08:13:18.584Z,18.30
2023-03-03T08:14:26.105Z,17.50
2023-03-03T08:15:37.619Z,17.30
2023-03-03T08:16:41.046Z,17.02
2023-03-03T08:17:45.345Z,17.48
2023-03-03T08:18:50.473Z,19.20
2023-03-03T08:19:53.722Z,21.02
2023-03-03T08:20:58.692Z,18.50
2023-03-03T08:22:09.458Z,19.60
2023-03-03T08:23:12.615Z,19.20
2023-03-03T08:24:15.477Z,22.23
2023-03-03T08:25:17.246Z,20.10
2023-03-03T08:26:22.083Z,21.85
2023-03-03T08:27:23.682Z,22.40
2023-03-03T08:28:26.522Z,23.10
2023-03-03T08:29:28.134Z,24.00
2023-03-03T08:30:36.508Z,22.63
2023-03-03T08:31:41.938Z,21.15
2023-03-03T08:32:43.858Z,24.42
2023-03-03T08:33:54.721Z,22.58
2023-03-03T08:34:56.232Z,23.42
2023-03-03T08:36:01.322Z,22.60
2023-03-03T08:37:03.493Z,24.08
2023-03-03T08:38:19.701Z,23.75
2023-03-03T08:39:21.427Z,24.38
2023-03-03T08:40:25.563Z,21.67
2023-03-03T08:41:29.540Z,22.88
2023-03-03T08:42:37.545Z,21.85
2023-03-03T08:43:40.079Z,22.10
2023-03-03T08:44:42.998Z,21.63
2023-03-03T08:45:45.593Z,21.92
2023-03-03T08:46:48.147Z,21.45
2023-03-03T08:47:49.817Z,21.85
2023-03-03T08:48:53.252Z,25.30
2023-03-03T08:49:55.186Z,22.50
2023-03-03T08:50:57.930Z,22.60
2023-03-03T08:52:10.458Z,22.83
2023-03-03T08:53:25.209Z,23.20
2023-03-03T08:54:26.849Z,20.67
2023-03-03T08:55:35.636Z,21.33
2023-03-03T08:56:38.651Z,23.58
2023-03-03T08:57:41.500Z,24.67
2023-03-03T08:59:01.180Z,23.23
2023-03-03T09:00:03.921Z,23.27
2023-03-03T09:01:07.698Z,21.67
2023-03-03T09:02:09.367Z,21.25
2023-03-03T09:03:12.056Z,22.65
2023-03-03T09:04:14.690Z,22.88
2023-03-03T09:05:17.666Z,23.50
2023-03-03T09:06:20.548Z,25.42
2023-03-03T09:07:27.592Z,26.17
2023-03-03T09:08:30.538Z,24.38
2023-03-03T09:09:32.114Z,23.58
2023-03-03T09:10:39.388Z,25.42
2023-03-03T09:11:43.426Z,25.27
2023-03-03T09:12:49.196Z,24.85
2023-03-03T09:13:53.147Z,26.13
2023-03-03T09:14:59.559Z,25.77
2023-03-03T09:16:14.924Z,23.90
2023-03-03T09:17:25.943Z,27.80
2023-03-03T09:18:36.302Z,23.83
2023-03-03T09:19:37.811Z,21.92
2023-03-03T09:20:41.837Z,26.73
2023-03-03T09:21:43.502Z,26.42
2023-03-03T09:22:46.140Z,26.25
2023-03-03T09:23:54.110Z,25.90
2023-03-03T09:24:59.350Z,23.92
2023-03-03T09:26:28.042Z,25.45
2023-03-03T09:27:36.234Z,24.73
2023-03-03T09:28:38.115Z,24.80
2023-03-03T09:29:41.595Z,24.40
2023-03-03T09:30:48.742Z,25.75
2023-03-03T09:31:56.297Z,25.33
2023-03-03T09:32:58.326Z,24.65
2023-03-03T09:34:01.976Z,24.02
2023-03-03T09:35:31.008Z,24.17
2023-03-03T09:36:37.582Z,22.75
2023-03-03T09:37:44.207Z,23.50
2023-03-03T09:38:58.026Z,23.52
2023-03-03T09:40:01.848Z,25.80
2023-03-03T09:41:34.979Z,22.52
2023-03-03T09:43:00.602Z,25.88
2023-03-03T09:44:25.141Z,24.80
2023-03-03T09:45:37.717Z,28.00
2023-03-03T09:46:52.157Z,25.30
2023-03-03T09:48:18.508Z,24.17
2023-03-03T09:49:31.891Z,23.00
2023-03-03T09:50:45.383Z,26.02
2023-03-03T09:52:01.930Z,25.20
2023-03-03T09:53:19.212Z,25.55
2023-03-03T09:54:39.529Z,24.20
2023-03-03T09:55:49.372Z,23.70
2023-03-03T09:56:56.457Z,23.27
2023-03-03T09:58:16.051Z,23.05
2023-03-03T09:59:44.852Z,22.33
2023-03-03T10:01:00.474Z,23.00
2023-03-03T10:02:32.869Z,22.83
2023-03-03T10:03:48.137Z,23.83
2023-03-03T10:05:14.619Z,21.70
2023-03-03T10:06:26.400Z,22.00
2023-03-03T10:07:43.871Z,19.08
2023-03-03T10:09:11.359Z,22.35
2023-03-03T10:10:26.982Z,21.85
2023-03-03T10:11:35.655Z,20.05
2023-03-03T10:12:46.460Z,22.35
2023-03-03T10:14:07.612Z,22.58
2023-03-03T10:15:21.982Z,21.05
2023-03-03T10:16:44.009Z,21.02
2023-03-03T10:17:50.897Z,20.27
2023-03-03T10:18:59.277Z,21.60
2023-03-03T10:20:13.236Z,20.67
2023-03-03T10:21:24.911Z,19.27
2023-03-03T10:22:36.593Z,22.92
2023-03-03T10:23:58.718Z,21.13
2023-03-03T10:25:15.663Z,22.15
2023-03-03T10:26:41.941Z,17.83
2023-03-03T10:28:06.216Z,20.85
2023-03-03T10:29:30.860Z,19.65
2023-03-03T10:30:58.529Z,19.55
2023-03-03T10:32:27.217Z,18.45
2023-03-03T10:33:38.171Z,17.73
2023-03-03T10:35:03.928Z,17.27
2023-03-03T10:36:26.026Z,17.60
2023-03-03T10:37:38.010Z,18.42
2023-03-03T10:38:55.332Z,17.80
2023-03-03T10:40:10.916Z,16.85
2023-03-03T10:41:35.122Z,18.52
2023-03-03T10:42:55.945Z,19.65
2023-03-03T10:44:08.679Z,17.98
2023-03-03T10:45:35.035Z,18.25
2023-03-03T10:46:52.962Z,16.70
2023-03-03T10:48:16.047Z,16.50
2023-03-03T10:49:29.841Z,17.75
2023-03-03T10:50:41.556Z,17.10
2023-03-03T10:52:10.080Z,18.17
2023-03-03T10:53:25.945Z,17.55
2023-03-03T10:54:40.513Z,18.83
2023-03-03T10:55:52.248Z,16.73
2023-03-03T10:57:05.154Z,16.40
2023-03-03T10:58:46.152Z,14.90
2023-03-03T11:00:02.563Z,17.13
2023-03-03T11:01:24.117Z,17.98
2023-03-03T11:02:33.124Z,16.15
2023-03-03T11:03:56.050Z,17.92
2023-03-03T11:05:24.387Z,16.83
2023-03-03T11:06:36.833Z,17.10
2023-03-03T11:07:43.989Z,17.75
2023-03-03T11:08:53.770Z,18.65
2023-03-03T11:10:06.046Z,18.02
2023-03-03T11:11:16.380Z,17.17
2023-03-03T11:12:30.126Z,17.95
2023-03-03T11:13:43.327Z,16.15
2023-03-03T11:14:50.904Z,16.95
2023-03-03T11:16:19.630Z,17.40
2023-03-03T11:17:31.228Z,17.67
2023-03-03T11:18:44.745Z,17.45
2023-03-03T11:20:02.233Z,17.25
2023-03-03T11:21:25.779Z,16.85
2023-03-03T11:22:38.257Z,17.45
2023-03-03T11:23:53.337Z,17.17
2023-03-03T11:25:07.776Z,17.77
2023-03-03T11:26:17.706Z,18.35
2023-03-03T11:27:33.999Z,17.02
2023-03-03T11:28:56.102Z,21.50
2023-03-03T11:30:30.041Z,16.30
2023-03-03T11:31:44.267Z,16.50
2023-03-03T11:32:51.852Z,16.45
2023-03-03T11:34:02.288Z,17.05
2023-03-03T11:35:20.001Z,17.38
2023-03-03T11:36:28.482Z,18.17
2023-03-03T11:37:41.633Z,17.23
2023-03-03T11:38:57.588Z,18.20
2023-03-03T11:40:09.832Z,19.13
2023-03-03T11:41:20.758Z,16.85
2023-03-03T11:42:28.436Z,16.77
2023-03-03T11:43:39.634Z,18.30
2023-03-03T11:44:47.149Z,18.33
2023-03-03T11:45:54.352Z,18.33
2023-03-03T11:47:01.635Z,18.15
2023-03-03T11:48:13.249Z,17.58
2023-03-03T11:49:22.557Z,17.52
2023-03-03T11:50:29.097Z,17.88
2023-03-03T11:51:42.636Z,17.73
2023-03-03T11:52:53.142Z,17.45
2023-03-03T11:53:59.523Z,16.75
2023-03-03T11:55:10.155Z,19.50
2023-03-03T11:56:22.911Z,16.55
2023-03-03T11:57:30.157Z,17.90
2023-03-03T11:58:39.798Z,19.58
2023-03-03T11:59:49.141Z,17.60
2023-03-03T12:00:55.132Z,19.05
2023-03-03T12:02:23.333Z,17.58
2023-03-03T12:03:32.635Z,18.23
2023-03-03T12:04:50.951Z,18.88
2023-03-03T12:06:02.707Z,16.10
2023-03-03T12:07:19.656Z,17.77
2023-03-03T12:08:37.773Z,19.08
2023-03-03T12:09:54.952Z,18.02
2023-03-03T12:11:01.225Z,20.25
2023-03-03T12:12:08.687Z,17.75
2023-03-03T12:13:23.435Z,17.63
2023-03-03T12:14:40.863Z,17.52
2023-03-03T12:15:52.415Z,15.95
2023-03-03T12:16:58.159Z,18.13
2023-03-03T12:18:26.596Z,18.27
2023-03-03T12:19:35.824Z,18.83
2023-03-03T12:20:50.342Z,16.58
2023-03-03T12:22:05.790Z,18.90
2023-03-03T12:23:26.310Z,17.70
2023-03-03T12:24:44.451Z,19.20
2023-03-03T12:25:55.909Z,18.95
2023-03-03T12:27:10.564Z,19.50
2023-03-03T12:28:19.921Z,17.25
2023-03-03T12:29:28.740Z,20.70
2023-03-03T12:30:52.018Z,17.77
2023-03-03T12:32:03.923Z,17.65
2023-03-03T12:33:31.334Z,18.15
2023-03-03T12:34:41.761Z,17.70
2023-03-03T12:35:52.892Z,17.08
2023-03-03T12:37:22.364Z,18.38
2023-03-03T12:38:36.187Z,19.42
2023-03-03T12:39:48.552Z,17.98
2023-03-03T12:40:58.979Z,19.05
2023-03-03T12:42:07.652Z,18.23
2023-03-03T12:43:24.424Z,19.45
2023-03-03T12:44:35.941Z,18.27
2023-03-03T12:45:50.542Z,17.58
2023-03-03T12:47:01.827Z,17.35
2023-03-03T12:48:11.001Z,16.58
2023-03-03T12:49:20.336Z,17.88
2023-03-03T12:50:43.303Z,16.48
2023-03-03T12:52:02.263Z,17.08
2023-03-03T12:53:17.462Z,17.52
2023-03-03T12:54:37.169Z,10.65
2023-03-03T12:55:49.562Z,15.57
2023-03-03T12:56:55.201Z,16.00
2023-03-03T12:58:06.175Z,16.20
2023-03-03T12:59:17.160Z,14.50
2023-03-03T13:00:32.847Z,15.95
2023-03-03T13:01:58.352Z,13.98
2023-03-03T13:03:14.807Z,15.90
2023-03-03T13:04:32.820Z,14.48
2023-03-03T13:05:48.646Z,16.38
2023-03-03T13:06:56.395Z,14.18
2023-03-03T13:08:20.899Z,16.83
2023-03-03T13:09:47.064Z,15.05
2023-03-03T13:10:58.219Z,16.92
2023-03-03T13:12:19.344Z,17.25
2023-03-03T13:13:28.156Z,17.02
2023-03-03T13:14:37.451Z,17.50
2023-03-03T13:15:55.197Z,13.18
2023-03-03T13:17:10.502Z,14.85
2023-03-03T13:18:30.628Z,13.57
2023-03-03T13:19:41.660Z,15.88
2023-03-03T13:20:52.281Z,16.02
2023-03-03T13:22:01.380Z,15.95
2023-03-03T13:23:08.839Z,17.60
2023-03-03T13:24:19.639Z,16.00
2023-03-03T13:25:42.061Z,16.63
2023-03-03T13:26:48.791Z,15.13
2023-03-03T13:27:56.370Z,18.08
2023-03-03T13:29:05.675Z,16.10
2023-03-03T13:30:16.765Z,15.77
2023-03-03T13:31:27.764Z,13.90
2023-03-03T13:32:37.945Z,16.63
2023-03-03T13:33:48.856Z,16.15
2023-03-03T13:35:00.684Z,17.13
2023-03-03T13:36:07.269Z,14.93
2023-03-03T13:37:16.976Z,16.80
2023-03-03T13:38:24.051Z,15.70
2023-03-03T13:39:30.892Z,16.13
2023-03-03T13:40:41.394Z,14.63
2023-03-03T13:41:51.674Z,15.55
2023-03-03T13:42:57.815Z,16.17
2023-03-03T13:44:04.876Z,14.60
2023-03-03T13:45:16.338Z,15.68
2023-03-03T13:46:29.546Z,17.02
2023-03-03T13:47:39.399Z,14.10
2023-03-03T13:48:56.962Z,16.48
2023-03-03T13:50:18.289Z,17.00
2023-03-03T13:51:29.341Z,15.32
2023-03-03T13:52:34.901Z,15.13
2023-03-03T13:53:49.643Z,16.70
2023-03-03T13:55:14.528Z,18.17
2023-03-03T13:56:44.612Z,19.08
2023-03-03T13:58:04.411Z,16.35
2023-03-03T13:59:18.429Z,15.88
2023-03-03T14:00:31.896Z,15.88
2023-03-03T14:01:48.134Z,15.65
2023-03-03T14:03:09.573Z,16.65
2023-03-03T14:04:17.624Z,18.05
2023-03-03T14:05:29.691Z,19.52
2023-03-03T14:06:32.831Z,17.75
2023-03-03T14:07:38.806Z,16.30
2023-03-03T14:09:01.577Z,17.38
2023-03-03T14:10:10.802Z,17.35
2023-03-03T14:11:20.655Z,11.65
2023-03-03T14:12:29.778Z,15.10
2023-03-03T14:13:40.667Z,18.60
2023-03-03T14:14:53.963Z,18.10
2023-03-03T14:15:59.651Z,17.98
2023-03-03T14:17:05.343Z,15.55
2023-03-03T14:18:22.735Z,16.77
2023-03-03T14:19:30.863Z,19.05
2023-03-03T14:20:38.977Z,18.35
2023-03-03T14:21:47.872Z,19.67
2023-03-03T14:22:54.627Z,17.52
2023-03-03T14:24:04.442Z,16.90
2023-03-03T14:25:09.781Z,19.08
2023-03-03T14:26:14.031Z,17.08
2023-03-03T14:27:26.232Z,20.02
2023-03-03T14:28:40.422Z,18.23
2023-03-03T14:29:42.989Z,20.02
2023-03-03T14:30:45.831Z,18.27
2023-03-03T14:31:47.743Z,18.75
2023-03-03T14:33:01.386Z,18.58
2023-03-03T14:34:30.937Z,20.20
2023-03-03T14:35:36.426Z,19.17
2023-03-03T14:36:42.156Z,22.17
2023-03-03T14:37:45.496Z,22.45
2023-03-03T14:38:51.610Z,20.00
2023-03-03T14:40:17.030Z,19.27
2023-03-03T14:41:22.918Z,20.73
2023-03-03T14:42:33.843Z,20.45
2023-03-03T14:43:57.660Z,20.63
2023-03-03T14:45:29.423Z,19.30
2023-03-03T14:46:36.472Z,19.40
2023-03-03T14:47:45.947Z,19.23
2023-03-03T14:48:52.395Z,20.55
2023-03-03T14:49:59.910Z,19.98
2023-03-03T14:51:25.384Z,19.85
2023-03-03T14:52:29.615Z,17.88
2023-03-03T14:53:35.520Z,19.83
2023-03-03T14:54:41.362Z,21.33
2023-03-03T14:55:46.186Z,20.83
2023-03-03T14:57:00.879Z,17.20
2023-03-03T14:58:04.176Z,19.75
2023-03-03T14:59:17.953Z,18.85
2023-03-03T15:00:35.925Z,18.88
2023-03-03T15:01:43.012Z,19.70
2023-03-03T15:02:58.764Z,21.05
2023-03-03T15:04:02.872Z,19.95
2023-03-03T15:05:21.984Z,18.15
2023-03-03T15:06:37.204Z,19.88
2023-03-03T15:07:40.014Z,18.73
2023-03-03T15:08:43.327Z,17.27
2023-03-03T15:09:51.389Z,17.45
2023-03-03T15:10:53.088Z,16.92
2023-03-03T15:11:57.074Z,20.70
2023-03-03T15:13:09.221Z,19.15
2023-03-03T15:14:14.852Z,18.80
2023-03-03T15:15:20.227Z,16.90
2023-03-03T15:16:23.301Z,18.52
2023-03-03T15:17:34.504Z,19.85
2023-03-03T15:19:00.371Z,20.48
2023-03-03T15:20:32.252Z,22.08
2023-03-03T15:21:39.753Z,19.50
2023-03-03T15:22:49.407Z,20.67